TimeEDT,TemperatureF,Dew PointF,Humidity,Sea Level PressureIn,VisibilityMPH,Wind Direction,Wind SpeedMPH,Gust SpeedMPH,PrecipitationIn,Events,Conditions,WindDirDegrees,DateUTC
12:56 AM,50.9,50.0,97,29.99,10.0,ESE,3.5,-,N/A,,Scattered Clouds,110,2013-05-10 04:56:00
1:56 AM,50.0,48.9,96,29.99,8.0,East,4.6,-,N/A,,Clear,90,2013-05-10 05:56:00
2:56 AM,48.9,48.9,100,29.99,9.0,Calm,Calm,-,N/A,,Clear,0,2013-05-10 06:56:00
3:56 AM,48.9,48.9,100,29.99,9.0,East,4.6,-,N/A,,Clear,90,2013-05-10 07:56:00
4:56 AM,48.9,47.8,96,29.99,8.0,East,5.8,-,N/A,,Clear,80,2013-05-10 08:56:00
5:56 AM,48.9,47.8,96,29.99,6.0,East,5.8,-,N/A,,Clear,80,2013-05-10 09:56:00
6:30 AM,48.2,48.2,100,29.99,10.0,East,5.8,-,N/A,,Clear,80,2013-05-10 10:30:00
6:56 AM,50.0,48.9,96,30.00,10.0,East,3.5,-,N/A,,Clear,80,2013-05-10 10:56:00
7:56 AM,54.9,52.0,90,30.00,10.0,East,3.5,-,N/A,,Clear,90,2013-05-10 11:56:00
8:56 AM,63.0,54.9,75,30.00,10.0,South,6.9,-,N/A,,Clear,180,2013-05-10 12:56:00
9:56 AM,65.8,54.0,65,29.99,10.0,SSE,8.1,-,N/A,,Clear,160,2013-05-10 13:56:00
10:56 AM,70.0,52.9,55,29.97,10.0,SSE,9.2,-,N/A,,Clear,160,2013-05-10 14:56:00
11:56 AM,70.0,50.0,49,29.97,10.0,SSE,10.4,-,N/A,,Scattered Clouds,160,2013-05-10 15:56:00
12:56 PM,68.9,50.9,53,29.96,10.0,South,9.2,-,N/A,,Overcast,170,2013-05-10 16:56:00
1:56 PM,63.9,52.9,67,29.96,10.0,South,10.4,-,0.00,,Mostly Cloudy,180,2013-05-10 17:56:00
2:56 PM,68.9,54.0,59,29.94,10.0,South,9.2,-,0.00,,Mostly Cloudy,180,2013-05-10 18:56:00
3:56 PM,70.9,52.9,53,29.89,10.0,South,17.3,21.9,N/A,,Scattered Clouds,170,2013-05-10 19:56:00
4:56 PM,70.0,50.9,51,29.87,10.0,South,13.8,-,N/A,,Scattered Clouds,180,2013-05-10 20:56:00
5:56 PM,68.9,50.9,53,29.87,10.0,South,10.4,-,N/A,,Scattered Clouds,170,2013-05-10 21:56:00
6:56 PM,66.9,52.0,59,29.85,10.0,SSE,9.2,-,N/A,,Mostly Cloudy,160,2013-05-10 22:56:00
7:56 PM,66.9,52.9,61,29.84,10.0,SSE,10.4,-,N/A,,Mostly Cloudy,160,2013-05-10 23:56:00
8:56 PM,65.8,54.0,65,29.83,6.0,South,6.9,-,N/A,Thunderstorm,Thunderstorm,190,2013-05-11 00:56:00
9:20 PM,62.6,57.2,82,29.89,5.0,WSW,8.1,-,0.03,Rain-Thunderstorm,Thunderstorms and Rain,240,2013-05-11 01:20:00
9:56 PM,61.0,59.0,93,29.87,4.0,SSW,6.9,-,0.14,Rain,Heavy Rain,200,2013-05-11 01:56:00
10:08 PM,60.8,59.0,94,29.88,7.0,South,6.9,-,0.03,Rain,Rain,180,2013-05-11 02:08:00
10:22 PM,60.8,59.0,94,29.86,6.0,South,9.2,-,0.06,Rain,Rain,170,2013-05-11 02:22:00
10:56 PM,59.9,56.8,90,29.82,10.0,SSE,11.5,-,0.10,Rain,Light Rain,160,2013-05-11 02:56:00
11:56 PM,59.0,56.8,93,29.80,10.0,South,12.7,-,0.01,Rain,Light Rain,170,2013-05-11 03:56:00